Time;durP1;ratioP1;P1;durP2;ratioP2;P2;SDS_P1;SDS_P2;PMS_P1;PMS_P2;Temp;Humidity;BMP_temperature;BMP_pressure;BME280_temperature;BME280_humidity;BME280_pressure;Samples;Min_cycle;Max_cycle;Signal;HPM_P1;HPM_P2
2022/12/08 00:01:32;;;;;;;22.30;20.40;;;;;;;1.61;86.66;97321.80;104778;1325;22089;-80
2022/12/08 00:04:02;;;;;;;22.00;20.10;;;;;;;1.61;86.49;97322.85;104826;1317;22208;-80
2022/12/08 00:09:22;;;;;;;18.10;16.40;;;;;;;1.62;86.24;97326.42;104487;1332;22248;-81
2022/12/08 00:12:01;;;;;;;18.10;16.50;;;;;;;1.68;86.67;97326.14;104503;1331;22950;-80
2022/12/08 00:14:32;;;;;;;23.80;21.70;;;;;;;1.68;86.23;97326.14;104618;1311;22201;-80
2022/12/08 00:17:02;;;;;;;20.50;18.70;;;;;;;1.65;86.50;97327.66;104372;1332;22198;-81
2022/12/08 00:19:30;;;;;;;17.70;16.00;;;;;;;1.64;86.05;97326.91;104822;1325;22193;-80
2022/12/08 00:21:58;;;;;;;18.60;16.80;;;;;;;1.66;86.29;97323.27;104363;1332;22290;-81
2022/12/08 00:24:31;;;;;;;18.50;17.00;;;;;;;1.71;86.47;97324.98;104479;1332;22226;-80
2022/12/08 00:26:59;;;;;;;19.20;17.30;;;;;;;1.69;86.42;97323.60;104322;1332;22235;-82
2022/12/08 00:29:27;;;;;;;19.60;17.80;;;;;;;1.69;86.01;97324.02;104371;1333;22194;-82
2022/12/08 00:31:55;;;;;;;17.30;15.60;;;;;;;1.62;86.19;97332.63;104314;1332;22215;-82
2022/12/08 00:34:23;;;;;;;16.50;15.00;;;;;;;1.59;86.65;97333.66;104500;1328;23079;-82
2022/12/08 00:36:51;;;;;;;17.80;16.10;;;;;;;1.59;87.01;97339.98;104451;1331;22183;-82
2022/12/08 00:39:19;;;;;;;18.60;16.90;;;;;;;1.59;87.07;97341.58;104385;1333;22910;-82
2022/12/08 00:44:33;;;;;;;19.60;18.00;;;;;;;1.55;87.03;97342.09;104412;1333;22378;-82
2022/12/08 00:47:01;;;;;;;17.20;15.50;;;;;;;1.58;87.29;97345.23;104785;1324;22939;-82
2022/12/08 00:49:29;;;;;;;19.40;17.70;;;;;;;1.63;87.46;97343.36;104459;1319;22341;-82
2022/12/08 00:51:57;;;;;;;29.40;27.10;;;;;;;1.64;87.21;97347.84;104490;1332;22548;-81
2022/12/08 00:54:25;;;;;;;19.10;17.40;;;;;;;1.63;87.04;97357.71;104502;1326;22383;-82
2022/12/08 00:56:53;;;;;;;21.00;19.10;;;;;;;1.63;87.00;97353.19;104637;1318;22223;-82
2022/12/08 00:59:21;;;;;;;17.10;15.50;;;;;;;1.63;87.09;97352.08;104765;1318;22226;-82
2022/12/08 01:01:49;;;;;;;16.00;14.50;;;;;;;1.67;87.58;97353.42;104768;1309;22272;-82
2022/12/08 01:04:18;;;;;;;15.80;14.50;;;;;;;1.69;87.49;97358.60;104472;1327;22184;-82
2022/12/08 01:06:47;;;;;;;17.90;16.40;;;;;;;1.69;87.22;97356.63;104490;1331;22222;-82
2022/12/08 01:09:16;;;;;;;17.00;15.50;;;;;;;1.67;86.90;97359.02;104401;1332;22222;-82
2022/12/08 01:11:45;;;;;;;16.60;15.10;;;;;;;1.70;87.13;97363.40;104484;1331;22672;-82
2022/12/08 01:14:13;;;;;;;20.00;18.20;;;;;;;1.73;87.35;97366.71;104294;1332;22193;-82
2022/12/08 01:16:42;;;;;;;16.90;15.30;;;;;;;1.73;87.14;97366.66;104376;1332;22228;-81
2022/12/08 01:19:12;;;;;;;17.90;16.10;;;;;;;1.71;87.09;97369.45;104383;1332;22205;-82
2022/12/08 01:21:41;;;;;;;17.80;16.30;;;;;;;1.69;87.04;97369.86;104480;1325;22166;-82
2022/12/08 01:24:15;;;;;;;16.00;14.50;;;;;;;1.72;87.19;97368.88;104395;1332;22125;-81
2022/12/08 01:26:43;;;;;;;17.10;15.60;;;;;;;1.76;87.46;97367.04;104481;1332;22289;-81
2022/12/08 01:29:11;;;;;;;17.10;15.50;;;;;;;1.79;87.09;97366.86;104382;1327;22203;-81
2022/12/08 01:31:39;;;;;;;18.60;16.90;;;;;;;1.76;86.90;97366.51;104628;1320;22186;-81
2022/12/08 01:34:09;;;;;;;14.40;13.00;;;;;;;1.76;86.36;97367.96;104555;1325;22183;-80
2022/12/08 01:36:38;;;;;;;14.80;13.50;;;;;;;1.77;86.73;97362.59;104489;1332;22323;-80
2022/12/08 01:39:09;;;;;;;16.90;15.30;;;;;;;1.78;86.67;97362.29;104309;1332;22204;-81
2022/12/08 01:41:38;;;;;;;15.70;14.30;;;;;;;1.77;86.49;97362.97;104306;1332;22933;-81
2022/12/08 01:44:07;;;;;;;15.10;13.70;;;;;;;1.77;86.02;97358.34;104500;1332;23010;-81
2022/12/08 01:46:38;;;;;;;15.40;14.00;;;;;;;1.75;86.25;97356.94;104503;1332;22214;-81
2022/12/08 01:49:34;;;;;;;15.70;14.40;;;;;;;1.75;86.73;97357.42;104318;1335;22751;-81
2022/12/08 01:52:13;;;;;;;16.50;14.80;;;;;;;1.75;86.56;97355.41;104475;1332;22194;-81
2022/12/08 01:54:48;;;;;;;15.30;13.80;;;;;;;1.71;86.33;97354.42;104805;1311;22201;-81
2022/12/08 01:57:22;;;;;;;17.10;15.50;;;;;;;1.71;86.07;97352.72;104504;1332;22269;-81
2022/12/08 01:59:55;;;;;;;;;;;;;;;1.70;86.52;97354.20;104579;1324;22431;-82
2022/12/08 02:02:28;;;;;;;18.30;16.70;;;;;;;1.68;86.67;97352.75;104510;1324;22312;-81
2022/12/08 02:04:56;;;;;;;21.90;20.00;;;;;;;1.65;86.58;97353.32;104659;1323;22936;-81
2022/12/08 02:07:24;;;;;;;17.50;16.00;;;;;;;1.65;86.25;97359.31;104519;1332;22198;-81
2022/12/08 02:09:52;;;;;;;20.70;18.80;;;;;;;1.65;86.53;97358.25;104486;1332;22910;-82
2022/12/08 02:12:20;;;;;;;16.00;14.60;;;;;;;1.67;86.96;97362.67;104376;1318;23045;-82
2022/12/08 02:14:49;;;;;;;17.40;15.80;;;;;;;1.69;86.48;97363.86;104356;1332;22108;-81
2022/12/08 02:18:06;;;;;;;17.10;15.50;;;;;;;1.66;86.43;97362.14;104512;1332;22931;-81
2022/12/08 02:20:34;;;;;;;16.20;14.70;;;;;;;1.64;86.30;97363.50;104140;1338;22134;-81
2022/12/08 02:23:14;;;;;;;16.40;14.90;;;;;;;1.65;86.54;97363.30;104166;1335;22272;-81
2022/12/08 02:26:06;;;;;;;16.40;14.90;;;;;;;1.66;86.76;97363.95;104150;1340;22328;-81
2022/12/08 02:28:55;;;;;;;18.30;16.70;;;;;;;1.66;86.60;97361.98;104124;1338;22249;-81
2022/12/08 02:31:41;;;;;;;18.60;17.00;;;;;;;1.63;86.25;97364.98;104118;1323;22329;-81
2022/12/08 02:34:28;;;;;;;15.80;14.40;;;;;;;1.60;86.14;97367.03;104106;1338;22172;-81
2022/12/08 02:37:17;;;;;;;15.00;13.70;;;;;;;1.62;86.70;97365.44;104136;1340;22289;-82
2022/12/08 02:40:01;;;;;;;22.00;19.80;;;;;;;1.62;86.65;97364.87;104069;1341;22271;-82
2022/12/08 02:43:02;;;;;;;20.50;18.70;;;;;;;1.59;86.58;97364.90;104189;1318;23072;-82
2022/12/08 02:45:38;;;;;;;16.30;14.80;;;;;;;1.57;86.53;97362.08;104195;1331;22346;-82
2022/12/08 02:48:07;;;;;;;16.00;14.50;;;;;;;1.59;86.80;97365.85;104244;1331;22265;-81
2022/12/08 02:50:35;;;;;;;14.90;13.60;;;;;;;1.63;86.79;97367.05;104210;1333;22218;-81
2022/12/08 02:53:04;;;;;;;14.90;13.60;;;;;;;1.60;86.69;97367.26;104683;1325;22222;-81
2022/12/08 02:55:54;;;;;;;16.20;14.70;;;;;;;1.57;86.57;97366.21;104509;1332;22128;-81
2022/12/08 02:59:01;;;;;;;14.60;13.30;;;;;;;1.57;86.68;97362.13;104840;1325;22173;-81
2022/12/08 03:01:47;;;;;;;15.90;14.40;;;;;;;1.57;87.00;97364.78;104412;1332;22201;-81
2022/12/08 03:04:44;;;;;;;19.80;18.00;;;;;;;1.53;86.86;97368.25;104821;1324;22065;-81
2022/12/08 03:07:26;;;;;;;16.50;15.10;;;;;;;1.50;86.81;97368.86;104513;1332;23496;-79
2022/12/08 03:10:01;;;;;;;16.50;14.90;;;;;;;1.50;86.95;97364.88;104436;1332;22234;-80
2022/12/08 03:12:40;;;;;;;16.60;15.10;;;;;;;1.52;87.19;97363.83;104457;1332;22756;-81
2022/12/08 03:15:13;;;;;;;17.00;15.50;;;;;;;1.48;86.94;97364.61;104464;1332;22923;-80
2022/12/08 03:17:46;;;;;;;17.10;15.70;;;;;;;1.45;86.84;97360.64;104448;1331;22137;-80
2022/12/08 03:20:22;;;;;;;18.90;17.30;;;;;;;1.43;86.68;97359.09;104349;1335;22226;-81
2022/12/08 03:22:54;;;;;;;16.70;15.00;;;;;;;1.41;87.07;97363.05;104493;1330;22119;-81
2022/12/08 03:25:29;;;;;;;17.10;15.50;;;;;;;1.43;87.32;97359.77;104411;1333;22161;-81
2022/12/08 03:27:58;;;;;;;17.70;16.20;;;;;;;1.42;87.32;97356.64;104495;1333;22203;-81
2022/12/08 03:30:30;;;;;;;19.00;17.30;;;;;;;1.41;87.18;97356.04;104409;1334;22209;-81
2022/12/08 03:33:26;;;;;;;17.30;15.80;;;;;;;1.38;87.04;97356.92;104542;1326;22938;-81
2022/12/08 03:35:54;;;;;;;16.90;15.30;;;;;;;1.37;87.04;97353.19;104506;1337;22231;-81
2022/12/08 03:38:22;;;;;;;21.00;19.10;;;;;;;1.40;87.56;97349.29;104470;1338;22357;-81
2022/12/08 03:43:36;;;;;;;22.80;21.00;;;;;;;1.36;87.23;97350.11;104468;1330;23150;-81
2022/12/08 03:46:04;;;;;;;28.00;25.40;;;;;;;1.34;87.14;97349.66;104373;1334;22269;-80
2022/12/08 03:48:32;;;;;;;18.40;16.80;;;;;;;1.34;87.32;97341.87;104344;1334;22230;-81
2022/12/08 03:51:00;;;;;;;21.40;19.60;;;;;;;1.35;87.25;97341.13;104326;1335;22324;-80
2022/12/08 03:53:28;;;;;;;29.50;27.20;;;;;;;1.33;87.23;97341.64;104305;1338;22997;-80
2022/12/08 03:55:56;;;;;;;23.40;21.60;;;;;;;1.31;87.03;97337.43;104515;1334;23068;-81
2022/12/08 03:58:24;;;;;;;23.90;21.90;;;;;;;1.27;86.79;97338.84;104400;1334;22259;-81
2022/12/08 04:00:52;;;;;;;22.80;20.90;;;;;;;1.25;86.91;97333.73;104362;1338;22434;-81
2022/12/08 04:03:20;;;;;;;22.00;20.10;;;;;;;1.26;87.24;97340.83;104458;1335;22224;-81
2022/12/08 04:05:48;;;;;;;23.40;21.30;;;;;;;1.28;87.29;97339.42;104797;1325;22168;-81
2022/12/08 04:08:16;;;;;;;23.40;21.20;;;;;;;1.30;87.26;97342.37;104410;1334;22210;-81
2022/12/08 04:10:43;;;;;;;26.70;24.30;;;;;;;1.28;87.17;97344.09;104800;1325;22261;-81
2022/12/08 04:13:11;;;;;;;25.20;22.90;;;;;;;1.24;87.12;97341.98;104476;1337;23000;-80
2022/12/08 04:15:44;;;;;;;26.90;24.00;;;;;;;1.22;86.83;97340.00;104507;1332;22252;-80
2022/12/08 04:18:13;;;;;;;26.50;24.00;;;;;;;1.22;87.17;97345.95;104842;1313;22200;-81
2022/12/08 04:20:43;;;;;;;23.50;21.40;;;;;;;1.26;87.38;97344.44;104833;1326;22307;-81
2022/12/08 04:23:11;;;;;;;27.40;24.60;;;;;;;1.27;87.50;97344.36;104387;1333;22301;-81
2022/12/08 04:25:39;;;;;;;27.80;25.40;;;;;;;1.27;87.31;97341.22;104359;1333;22219;-81
2022/12/08 04:28:07;;;;;;;23.90;21.80;;;;;;;1.25;87.11;97340.98;104809;1325;22996;-81
2022/12/08 04:30:35;;;;;;;23.90;21.50;;;;;;;1.21;87.28;97340.53;104374;1335;22099;-81
2022/12/08 04:33:03;;;;;;;27.10;24.30;;;;;;;1.23;87.42;97338.27;104285;1335;22199;-81
2022/12/08 04:35:31;;;;;;;24.40;22.10;;;;;;;1.27;87.33;97340.27;104391;1338;22282;-80
2022/12/08 04:37:59;;;;;;;29.70;26.40;;;;;;;1.33;87.68;97340.05;104432;1335;22769;-80
2022/12/08 04:40:27;;;;;;;27.80;25.10;;;;;;;1.30;87.66;97338.38;104759;1323;22232;-81
2022/12/08 04:42:55;;;;;;;31.20;27.90;;;;;;;1.28;87.38;97339.21;104490;1333;22121;-81
2022/12/08 04:45:23;;;;;;;30.60;27.50;;;;;;;1.26;87.51;97340.88;104428;1334;22215;-81
2022/12/08 04:47:51;;;;;;;33.70;30.70;;;;;;;1.24;87.39;97343.27;104287;1335;22219;-82
2022/12/08 04:50:19;;;;;;;33.40;30.40;;;;;;;1.25;87.39;97340.77;104518;1338;22288;-81
2022/12/08 04:52:47;;;;;;;29.20;26.60;;;;;;;1.30;87.45;97337.59;104473;1332;22271;-81
2022/12/08 04:55:15;;;;;;;30.20;27.50;;;;;;;1.35;87.54;97334.88;104803;1326;22364;-81
2022/12/08 04:57:43;;;;;;;32.20;29.70;;;;;;;1.39;87.35;97338.08;104818;1313;23506;-81
2022/12/08 05:00:12;;;;;;;34.30;31.30;;;;;;;1.38;87.66;97332.48;104527;1330;22112;-81
2022/12/08 05:02:40;;;;;;;32.10;29.50;;;;;;;1.37;87.73;97330.52;104479;1332;22189;-82
2022/12/08 05:05:08;;;;;;;34.80;32.00;;;;;;;1.35;87.83;97329.23;104516;1338;22222;-81
2022/12/08 05:07:36;;;;;;;38.90;35.60;;;;;;;1.34;87.79;97333.80;104457;1325;22337;-82
2022/12/08 05:10:05;;;;;;;30.80;28.30;;;;;;;1.36;87.74;97331.69;104380;1334;22923;-82
2022/12/08 05:12:33;;;;;;;28.70;26.40;;;;;;;1.41;87.79;97336.29;104701;1317;22288;-80
2022/12/08 05:15:02;;;;;;;32.20;29.40;;;;;;;1.45;87.68;97335.32;104511;1332;22208;-80
2022/12/08 05:17:30;;;;;;;30.70;27.90;;;;;;;1.49;88.08;97331.58;104395;1338;22736;-80
2022/12/08 05:19:58;;;;;;;30.90;28.40;;;;;;;1.50;87.94;97327.50;104488;1338;22302;-81
2022/12/08 05:22:26;;;;;;;36.30;32.90;;;;;;;1.52;87.98;97326.18;104292;1337;22282;-82
2022/12/08 05:24:54;;;;;;;31.70;29.10;;;;;;;1.51;88.04;97324.85;104679;1325;22101;-82
2022/12/08 05:27:22;;;;;;;31.00;28.10;;;;;;;1.52;88.15;97324.75;104492;1336;22222;-82
2022/12/08 05:29:50;;;;;;;30.80;24.80;;;;;;;1.51;87.69;97324.80;104377;1332;22908;-82
2022/12/08 05:32:18;;;;;;;31.20;28.50;;;;;;;1.51;87.71;97327.98;104789;1325;22172;-88
2022/12/08 05:34:46;;;;;;;29.90;27.20;;;;;;;1.52;87.77;97330.74;104498;1332;22196;-85
2022/12/08 05:37:14;;;;;;;33.80;30.80;;;;;;;1.50;87.78;97332.07;104428;1338;22686;-86
2022/12/08 05:39:42;;;;;;;35.30;32.10;;;;;;;1.48;87.80;97332.52;104531;1325;23137;-84
2022/12/08 05:42:10;;;;;;;33.20;30.20;;;;;;;1.45;87.67;97336.59;104516;1332;22157;-87
2022/12/08 05:44:38;;;;;;;28.20;25.70;;;;;;;1.41;87.72;97339.70;104299;1335;22845;-83
2022/12/08 05:47:06;;;;;;;27.40;24.60;;;;;;;1.39;87.54;97333.98;104369;1339;22274;-81
2022/12/08 05:49:34;;;;;;;25.80;23.40;;;;;;;1.41;87.66;97330.30;104306;1335;22231;-84
2022/12/08 05:52:02;;;;;;;23.70;21.60;;;;;;;1.48;87.90;97332.52;104509;1332;22277;-83
2022/12/08 05:54:30;;;;;;;26.60;24.20;;;;;;;1.53;88.06;97327.48;104511;1334;22222;-84
2022/12/08 05:56:58;;;;;;;29.60;24.70;;;;;;;1.55;87.69;97341.71;104738;1311;22930;-83
2022/12/08 05:59:26;;;;;;;30.80;27.50;;;;;;;1.51;87.71;97343.27;104393;1334;22274;-83
2022/12/08 06:01:54;;;;;;;32.40;28.70;;;;;;;1.48;87.71;97343.78;104394;1335;22901;-84
2022/12/08 06:04:22;;;;;;;35.00;31.60;;;;;;;1.48;87.86;97346.17;104497;1333;22297;-83
2022/12/08 06:06:50;;;;;;;36.20;32.50;;;;;;;1.47;87.69;97350.48;104746;1325;22176;-82
2022/12/08 06:09:18;;;;;;;32.70;29.20;;;;;;;1.48;87.66;97352.55;104510;1333;22232;-82
2022/12/08 06:11:46;;;;;;;36.10;32.20;;;;;;;1.48;87.60;97355.79;104524;1332;23051;-85
2022/12/08 06:14:14;;;;;;;32.40;29.50;;;;;;;1.48;87.87;97360.46;104526;1332;22169;-85
2022/12/08 06:16:42;;;;;;;32.10;29.20;;;;;;;1.48;87.87;97362.75;104506;1333;22278;-85
2022/12/08 06:19:10;;;;;;;27.00;24.70;;;;;;;1.49;88.18;97361.52;104516;1332;22197;-86
2022/12/08 06:21:38;;;;;;;23.60;21.50;;;;;;;1.48;87.83;97362.00;104410;1327;22210;-85
2022/12/08 06:24:06;;;;;;;27.00;24.50;;;;;;;1.48;87.69;97366.10;104496;1332;22140;-85
2022/12/08 06:26:34;;;;;;;26.00;23.70;;;;;;;1.49;87.62;97368.59;104797;1318;22201;-86
2022/12/08 06:29:03;;;;;;;29.70;26.60;;;;;;;1.50;87.53;97367.65;104713;1313;22074;-87
2022/12/08 06:31:31;;;;;;;25.30;22.90;;;;;;;1.54;87.99;97368.68;104502;1332;22481;-87
2022/12/08 06:33:59;;;;;;;27.70;25.10;;;;;;;1.56;87.81;97364.77;104754;1325;22125;-86
2022/12/08 06:36:28;;;;;;;24.90;22.70;;;;;;;1.57;87.88;97360.95;104322;1333;22279;-87
2022/12/08 06:38:56;;;;;;;26.80;24.20;;;;;;;1.59;87.84;97366.07;104501;1332;22329;-87
2022/12/08 06:41:25;;;;;;;24.70;22.30;;;;;;;1.60;87.80;97365.49;104341;1327;22143;-86
2022/12/08 06:43:57;;;;;;;21.30;19.20;;;;;;;1.60;87.54;97366.34;104691;1323;22412;-86
2022/12/08 06:46:25;;;;;;;20.80;18.90;;;;;;;1.59;87.28;97371.86;104391;1332;22224;-86
2022/12/08 06:48:53;;;;;;;20.70;18.80;;;;;;;1.57;87.33;97372.38;104707;1310;22189;-86
2022/12/08 06:51:22;;;;;;;20.90;18.80;;;;;;;1.53;87.18;97377.86;104391;1333;23008;-85
2022/12/08 06:53:50;;;;;;;22.00;19.90;;;;;;;1.48;87.42;97385.84;104576;1327;22260;-84
2022/12/08 06:56:19;;;;;;;22.00;19.80;;;;;;;1.44;87.38;97382.99;104518;1332;22113;-85
2022/12/08 06:58:47;;;;;;;25.20;22.60;;;;;;;1.41;87.52;97383.55;104684;1328;22188;-88
2022/12/08 07:01:19;;;;;;;25.70;23.20;;;;;;;1.47;87.82;97384.39;104531;1332;22231;-88
2022/12/08 07:03:48;;;;;;;29.70;26.80;;;;;;;1.51;87.65;97390.27;104449;1332;22251;-86
2022/12/08 07:06:19;;;;;;;31.90;28.80;;;;;;;1.55;87.36;97385.05;104493;1332;22214;-87
2022/12/08 07:08:47;;;;;;;37.80;34.00;;;;;;;1.59;87.69;97386.69;104375;1332;22281;-90
2022/12/08 07:11:16;;;;;;;45.60;40.90;;;;;;;1.63;87.75;97386.81;104294;1332;22228;-88
2022/12/08 07:13:49;;;;;;;46.60;42.40;;;;;;;1.63;87.64;97389.84;104463;1332;22376;-86
2022/12/08 07:16:18;;;;;;;53.60;48.20;;;;;;;1.61;87.69;97392.75;104518;1325;22804;-87
2022/12/08 07:18:46;;;;;;;48.50;44.20;;;;;;;1.57;87.56;97390.23;104517;1332;22121;-87
2022/12/08 07:21:15;;;;;;;42.80;38.80;;;;;;;1.55;87.62;97389.77;104380;1332;172305;-88
2022/12/08 07:23:47;;;;;;;44.20;40.20;;;;;;;1.57;87.49;97390.27;104840;1314;22219;-88
2022/12/08 07:26:25;;;;;;;50.90;46.20;;;;;;;1.61;87.48;97389.17;104534;1332;22791;-88
2022/12/08 07:28:53;;;;;;;53.40;48.60;;;;;;;1.60;87.53;97391.67;104794;1325;22183;-86
2022/12/08 07:31:23;;;;;;;55.50;50.20;;;;;;;1.62;87.68;97388.98;104800;1332;22260;-86
2022/12/08 07:33:52;;;;;;;57.70;52.60;;;;;;;1.65;87.76;97389.52;104447;1317;22220;-88
2022/12/08 07:36:21;;;;;;;35.40;30.10;;;;;;;1.66;87.76;97389.49;104393;1332;22134;-93
2022/12/08 07:38:51;;;;;;;58.40;53.10;;;;;;;1.67;87.71;97391.05;104716;1313;22887;-88
2022/12/08 07:41:25;;;;;;;51.10;45.90;;;;;;;1.71;87.71;97387.41;104480;1329;22343;-86
2022/12/08 07:43:57;;;;;;;50.20;45.20;;;;;;;1.76;87.62;97389.94;104453;1332;22278;-83
2022/12/08 07:46:25;;;;;;;47.80;43.00;;;;;;;1.84;87.63;97386.23;104671;1313;22095;-88
2022/12/08 07:48:54;;;;;;;58.60;52.70;;;;;;;1.92;87.65;97386.92;104452;1327;22125;-89
2022/12/08 07:51:23;;;;;;;65.60;56.90;;;;;;;2.00;87.68;97387.25;104557;1332;22931;-89
2022/12/08 07:53:52;;;;;;;87.40;75.10;;;;;;;2.07;87.78;97385.70;104849;1325;22058;-89
2022/12/08 07:56:22;;;;;;;99.90;76.80;;;;;;;2.16;87.96;97384.91;104849;1310;22225;-87
2022/12/08 07:58:50;;;;;;;87.90;70.40;;;;;;;2.24;87.83;97388.56;104498;1332;22860;-88
2022/12/08 08:01:26;;;;;;;75.40;64.50;;;;;;;2.32;88.04;97385.84;104535;1331;22232;-85
2022/12/08 08:03:56;;;;;;;77.90;67.40;;;;;;;2.38;87.78;97391.57;104354;1332;22200;-89
2022/12/08 08:06:24;;;;;;;60.20;52.20;;;;;;;2.39;87.69;97390.61;104455;1332;22095;-88
2022/12/08 08:08:53;;;;;;;59.90;47.50;;;;;;;2.44;87.34;97389.38;104906;1317;22205;-89
2022/12/08 08:11:21;;;;;;;62.80;49.00;;;;;;;2.49;87.25;97389.98;104584;1332;22154;-89
2022/12/08 08:13:50;;;;;;;71.20;56.50;;;;;;;2.55;87.32;97386.23;105126;1303;22207;-89
2022/12/08 08:16:19;;;;;;;59.20;49.70;;;;;;;2.61;87.36;97387.89;104561;1329;22118;-85
2022/12/08 08:18:49;;;;;;;60.70;50.90;;;;;;;2.66;87.41;97387.81;104747;1329;22972;-87
2022/12/08 08:21:20;;;;;;;71.00;51.80;;;;;;;2.73;87.76;97389.76;104481;1329;22248;-88
2022/12/08 08:24:08;;;;;;;52.10;46.00;;;;;;;2.80;87.50;97388.03;104620;1329;22197;-84
2022/12/08 08:26:36;;;;;;;47.30;41.60;;;;;;;2.81;87.11;97389.41;104694;1329;22772;-84
2022/12/08 08:29:04;;;;;;;39.30;34.90;;;;;;;2.79;86.92;97393.08;104450;1330;22215;-86
2022/12/08 08:31:32;;;;;;;35.90;32.20;;;;;;;2.80;86.97;97391.76;104468;1330;22228;-83
2022/12/08 08:34:04;;;;;;;35.30;31.90;;;;;;;2.87;87.31;97388.27;104526;1329;22148;-84
2022/12/08 08:36:33;;;;;;;35.60;32.20;;;;;;;2.97;87.00;97389.79;104551;1329;22229;-87
2022/12/08 08:39:02;;;;;;;33.00;29.90;;;;;;;3.04;87.14;97392.10;104553;1329;22187;-86
2022/12/08 08:41:30;;;;;;;35.60;32.30;;;;;;;3.11;87.14;97394.55;104517;1329;22234;-87
2022/12/08 08:43:58;;;;;;;34.00;30.80;;;;;;;3.15;87.19;97393.45;104545;1317;22196;-82
2022/12/08 08:46:26;;;;;;;32.40;29.50;;;;;;;3.17;86.73;97393.73;104746;1307;22198;-85
2022/12/08 08:48:55;;;;;;;23.30;21.20;;;;;;;3.14;86.66;97394.84;104522;1330;22137;-86
2022/12/08 08:51:23;;;;;;;28.90;26.30;;;;;;;3.14;87.12;97397.08;104512;1329;22228;-87
2022/12/08 08:53:51;;;;;;;23.20;20.70;;;;;;;3.17;86.68;97394.58;104620;1329;22236;-86
2022/12/08 08:56:19;;;;;;;24.40;21.90;;;;;;;3.15;86.40;97393.88;104939;1321;22176;-90
2022/12/08 08:58:48;;;;;;;29.00;26.00;;;;;;;3.17;86.66;97394.20;104534;1329;22829;-89
2022/12/08 09:01:19;;;;;;;21.70;19.40;;;;;;;3.20;86.35;97394.21;104523;1329;22248;-88
2022/12/08 09:03:48;;;;;;;24.40;22.10;;;;;;;3.25;85.93;97395.08;104557;1329;22128;-89
2022/12/08 09:06:17;;;;;;;23.80;20.90;;;;;;;3.27;86.25;97388.21;104534;1329;22097;-85
2022/12/08 09:08:45;;;;;;;21.00;19.10;;;;;;;3.33;85.70;97389.08;104502;1330;22112;-87
2022/12/08 09:11:14;;;;;;;18.20;16.50;;;;;;;3.31;85.47;97385.45;104544;1332;22210;-89
2022/12/08 09:13:42;;;;;;;22.30;16.50;;;;;;;3.29;85.01;97382.98;104629;1324;23059;-88
2022/12/08 09:16:11;;;;;;;18.40;16.00;;;;;;;3.27;84.36;97382.45;104535;1332;22195;-87
2022/12/08 09:18:39;;;;;;;29.10;18.20;;;;;;;3.25;84.38;97378.77;104870;1316;22260;-87
2022/12/08 09:21:15;;;;;;;60.80;54.50;;;;;;;3.27;83.96;97377.45;104637;1332;22213;-85
2022/12/08 09:23:43;;;;;;;26.30;23.60;;;;;;;3.28;83.27;97379.15;104741;1332;22268;-85
2022/12/08 09:26:11;;;;;;;28.90;25.50;;;;;;;3.30;83.43;97376.23;104876;1332;22219;-87
2022/12/08 09:28:44;;;;;;;28.90;26.10;;;;;;;3.32;83.79;97370.36;104694;1327;22110;-86
2022/12/08 09:31:13;;;;;;;28.30;25.50;;;;;;;3.38;83.26;97369.15;104494;1332;22219;-89
2022/12/08 09:33:41;;;;;;;25.00;22.50;;;;;;;3.44;82.88;97363.77;104623;1332;22177;-88
2022/12/08 09:36:10;;;;;;;31.80;28.70;;;;;;;3.50;83.10;97364.38;104324;1322;22139;-87
2022/12/08 09:38:41;;;;;;;26.30;23.90;;;;;;;3.56;82.83;97361.17;104554;1332;22210;-86
2022/12/08 09:41:50;;;;;;;32.70;29.70;;;;;;;3.55;82.52;97354.62;104326;1332;22216;-85
2022/12/08 09:44:58;;;;;;;24.90;22.40;;;;;;;3.52;80.40;97354.25;104395;1332;22137;-86
2022/12/08 09:47:42;;;;;;;23.00;20.90;;;;;;;3.47;80.93;97355.89;104558;1331;22195;-85
2022/12/08 09:50:13;;;;;;;30.20;27.20;;;;;;;3.45;80.76;97351.63;104445;1332;22264;-85
2022/12/08 09:53:00;;;;;;;24.30;21.70;;;;;;;3.45;81.27;97343.11;104640;1322;22281;-86
2022/12/08 09:55:37;;;;;;;26.50;23.90;;;;;;;3.46;80.22;97344.28;104448;1332;22908;-86
2022/12/08 09:58:16;;;;;;;25.80;23.50;;;;;;;3.47;80.72;97338.85;104500;1332;22109;-85
2022/12/08 10:00:44;;;;;;;18.80;16.90;;;;;;;3.50;80.37;97339.76;104434;1327;22236;-88
2022/12/08 10:03:12;;;;;;;14.30;12.90;;;;;;;3.53;80.67;97340.23;104506;1332;22183;-88
2022/12/08 10:05:52;;;;;;;18.50;16.60;;;;;;;3.60;80.39;97334.42;104626;1332;22344;-87
2022/12/08 10:08:31;;;;;;;19.50;14.80;;;;;;;3.65;80.18;97331.65;104619;1311;22198;-87
2022/12/08 10:11:10;;;;;;;22.10;19.80;;;;;;;3.66;79.42;97330.43;104526;1332;22835;-89
2022/12/08 10:13:53;;;;;;;33.80;30.60;;;;;;;3.63;79.35;97329.95;104477;1332;23065;-86
2022/12/08 10:16:33;;;;;;;20.90;18.90;;;;;;;3.63;80.18;97332.14;104380;1332;22242;-85
2022/12/08 10:19:16;;;;;;;19.40;17.60;;;;;;;3.62;79.28;97334.48;104484;1331;22233;-88
2022/12/08 10:21:44;;;;;;;16.60;14.90;;;;;;;3.59;78.39;97335.70;104520;1321;22685;-86
2022/12/08 10:24:22;;;;;;;19.00;17.10;;;;;;;3.56;79.10;97332.88;104330;1313;23053;-88
2022/12/08 10:26:50;;;;;;;19.80;17.90;;;;;;;3.54;78.43;97330.70;104519;1332;22281;-85
2022/12/08 10:29:18;;;;;;;39.40;35.70;;;;;;;3.51;78.53;97332.08;104371;1332;22309;-87
2022/12/08 10:31:46;;;;;;;26.00;23.20;;;;;;;3.50;78.94;97325.52;104799;1325;22187;-86
2022/12/08 10:34:22;;;;;;;26.40;23.90;;;;;;;3.49;78.98;97325.48;104644;1332;22297;-86
2022/12/08 10:37:20;;;;;;;88.10;78.50;;;;;;;3.50;79.43;97324.05;104348;1330;22136;-88
2022/12/08 10:39:58;;;;;;;22.80;18.90;;;;;;;3.52;78.64;97321.80;104514;1331;22120;-89
2022/12/08 10:42:34;;;;;;;16.90;15.30;;;;;;;3.50;78.54;97318.98;104516;1332;22211;-87
2022/12/08 10:45:07;;;;;;;17.30;15.60;;;;;;;3.49;78.66;97316.79;104493;1332;22295;-86
2022/12/08 10:47:38;;;;;;;17.50;15.80;;;;;;;3.48;78.58;97317.27;104856;1324;21987;-89
2022/12/08 10:50:22;;;;;;;22.70;20.40;;;;;;;3.52;78.96;97316.27;104532;1325;22251;-87
2022/12/08 10:53:07;;;;;;;21.50;19.40;;;;;;;3.57;78.82;97315.34;104684;1328;22202;-87
2022/12/08 10:56:07;;;;;;;21.30;17.60;;;;;;;3.61;79.12;97318.02;104902;1314;22863;-93
2022/12/08 10:58:39;;;;;;;22.60;17.40;;;;;;;3.60;78.82;97320.25;104506;1332;22211;-93
2022/12/08 11:01:16;;;;;;;17.20;15.60;;;;;;;3.60;78.19;97320.10;104469;1332;22199;-92
2022/12/08 11:03:48;;;;;;;18.90;17.00;;;;;;;3.56;77.32;97311.25;104465;1332;22239;-85
2022/12/08 11:06:33;;;;;;;33.00;25.80;;;;;;;3.51;77.98;97311.14;104516;1332;22209;-83
2022/12/08 11:09:03;;;;;;;22.90;20.40;;;;;;;3.48;78.03;97307.48;104835;1332;22117;-86
2022/12/08 11:11:53;;;;;;;18.80;17.10;;;;;;;3.48;77.68;97305.67;104637;1332;22223;-84
2022/12/08 11:14:36;;;;;;;18.30;16.60;;;;;;;3.45;77.80;97307.48;104620;1332;22915;-84
2022/12/08 11:17:08;;;;;;;25.00;22.40;;;;;;;3.42;77.39;97306.24;104355;1332;23123;-84
2022/12/08 11:19:38;;;;;;;26.10;23.40;;;;;;;3.39;77.88;97305.83;104623;1325;22252;-83
2022/12/08 11:22:38;;;;;;;18.10;16.40;;;;;;;3.42;77.58;97306.30;104415;1332;22108;-85
2022/12/08 11:25:06;;;;;;;23.40;21.30;;;;;;;3.47;77.87;97306.35;104267;1321;22946;-83
2022/12/08 11:27:37;;;;;;;18.50;16.20;;;;;;;3.48;77.82;97308.97;104449;1328;22243;-84
2022/12/08 11:30:14;;;;;;;21.60;19.40;;;;;;;3.48;78.15;97309.50;104180;1324;22173;-83
2022/12/08 11:32:45;;;;;;;17.90;16.20;;;;;;;3.46;77.98;97311.75;104182;1338;22156;-84
2022/12/08 11:35:41;;;;;;;21.20;19.20;;;;;;;3.45;77.20;97315.04;104183;1338;22244;-82
2022/12/08 11:38:30;;;;;;;19.50;17.60;;;;;;;3.40;77.87;97313.77;104097;1338;22939;-84
2022/12/08 11:41:34;;;;;;;20.40;18.50;;;;;;;3.37;77.11;97314.09;104193;1336;22300;-83
2022/12/08 11:44:26;;;;;;;22.40;20.00;;;;;;;3.31;76.41;97309.59;104092;1338;22240;-83
2022/12/08 11:46:59;;;;;;;20.40;18.40;;;;;;;3.25;76.31;97310.36;104144;1337;22884;-84
2022/12/08 11:49:39;;;;;;;21.20;19.10;;;;;;;3.20;76.41;97309.87;104106;1339;22288;-83